createdAt,value
2023-03-01T02:06:44.226Z,70.73
2023-03-01T02:08:17.406Z,69.79
2023-03-01T02:09:17.361Z,72.38
2023-03-01T02:10:17.395Z,72.49
2023-03-01T02:11:17.362Z,72.34
2023-03-01T02:12:17.380Z,72.45
2023-03-01T02:13:17.343Z,73.36
2023-03-01T02:14:17.398Z,69.62
2023-03-01T02:15:17.323Z,69.48
2023-03-01T02:16:17.499Z,69.52
2023-03-01T02:17:17.303Z,70.85
2023-03-01T02:18:18.492Z,72.11
2023-03-01T02:19:18.442Z,69.48
2023-03-01T02:20:18.420Z,69.48
2023-03-01T02:21:18.448Z,72.81
2023-03-01T02:22:19.254Z,72.07
2023-03-01T02:23:18.404Z,72.04
2023-03-01T02:24:20.226Z,73.40
2023-03-01T02:25:19.414Z,70.65
2023-03-01T02:26:18.386Z,68.76
2023-03-01T02:27:18.372Z,70.86
2023-03-01T02:28:18.420Z,69.81
2023-03-01T02:29:18.436Z,71.80
2023-03-01T02:30:18.385Z,72.19
2023-03-01T02:31:18.384Z,67.37
2023-03-01T02:32:18.390Z,67.06
2023-03-01T02:33:18.346Z,69.46
2023-03-01T02:34:18.349Z,68.55
2023-03-01T02:35:18.383Z,69.63
2023-03-01T02:36:18.330Z,68.48
2023-03-01T02:37:18.350Z,69.00
2023-03-01T02:38:18.391Z,69.95
2023-03-01T02:39:18.328Z,70.37
2023-03-01T02:40:18.421Z,74.41
2023-03-01T02:41:18.291Z,74.55
2023-03-01T02:42:18.294Z,69.12
2023-03-01T02:43:18.302Z,70.55
2023-03-01T02:44:18.337Z,69.51
2023-03-01T02:45:18.297Z,69.79
2023-03-01T02:46:18.384Z,69.16
2023-03-01T02:47:18.261Z,68.95
2023-03-01T02:48:18.264Z,69.47
2023-03-01T02:49:18.241Z,69.34
2023-03-01T02:50:18.282Z,69.51
2023-03-01T02:51:18.283Z,67.95
2023-03-01T02:52:18.226Z,67.22
2023-03-01T02:53:18.234Z,67.22
2023-03-01T02:54:18.194Z,68.99
2023-03-01T02:55:18.246Z,68.68
2023-03-01T02:56:18.218Z,67.22
2023-03-01T02:57:18.207Z,67.63
2023-03-01T02:58:18.207Z,66.91
2023-03-01T02:59:18.185Z,67.14
2023-03-01T03:00:18.183Z,70.17
2023-03-01T03:01:18.251Z,67.66
2023-03-01T03:02:18.186Z,68.40
2023-03-01T03:03:18.154Z,67.35
2023-03-01T03:04:18.172Z,68.12
2023-03-01T03:05:18.194Z,68.74
2023-03-01T03:06:18.120Z,65.81
2023-03-01T03:07:18.135Z,64.90
2023-03-01T03:08:18.153Z,67.13
2023-03-01T03:09:18.097Z,66.43
2023-03-01T03:10:18.138Z,68.03
2023-03-01T03:11:18.107Z,69.00
2023-03-01T03:12:18.120Z,74.52
2023-03-01T03:13:18.075Z,70.65
2023-03-01T03:14:18.102Z,69.81
2023-03-01T03:15:18.070Z,70.02
2023-03-01T03:16:18.162Z,66.39
2023-03-01T03:17:18.041Z,67.96
2023-03-01T03:18:18.051Z,68.59
2023-03-01T03:19:18.071Z,68.27
2023-03-01T03:20:18.078Z,71.51
2023-03-01T03:21:18.038Z,73.72
2023-03-01T03:22:18.068Z,71.41
2023-03-01T03:23:18.047Z,70.75
2023-03-01T03:24:18.012Z,70.23
2023-03-01T03:25:18.030Z,71.14
2023-03-01T03:26:18.073Z,72.15
2023-03-01T03:27:18.014Z,70.86
2023-03-01T03:28:18.000Z,70.24
2023-03-01T03:29:17.977Z,68.32
2023-03-01T03:30:17.995Z,69.06
2023-03-01T03:31:17.981Z,68.04
2023-03-01T03:32:17.975Z,68.46
2023-03-01T03:33:17.951Z,67.62
2023-03-01T03:34:17.975Z,67.34
2023-03-01T03:35:17.961Z,70.06
2023-03-01T03:36:17.967Z,69.33
2023-03-01T03:37:17.929Z,68.10
2023-03-01T03:38:17.983Z,68.31
2023-03-01T03:39:20.578Z,68.63
2023-03-01T03:40:17.917Z,70.54
2023-03-01T03:41:17.918Z,71.66
2023-03-01T03:42:17.903Z,71.14
2023-03-01T03:43:17.918Z,70.79
2023-03-01T03:44:17.886Z,70.34
2023-03-01T03:45:17.885Z,69.29
2023-03-01T03:46:17.871Z,70.13
2023-03-01T03:47:18.068Z,69.89
2023-03-01T03:48:17.848Z,69.79
2023-03-01T03:49:17.851Z,68.95
2023-03-01T03:50:17.861Z,70.00
2023-03-01T03:51:17.836Z,68.43
2023-03-01T03:52:17.824Z,68.82
2023-03-01T03:53:17.853Z,67.91
2023-03-01T03:54:17.818Z,68.32
2023-03-01T03:55:17.842Z,68.92
2023-03-01T03:56:17.820Z,68.82
2023-03-01T03:57:17.967Z,65.50
2023-03-01T03:58:17.813Z,67.73
2023-03-01T03:59:17.767Z,66.78
2023-03-01T04:00:17.827Z,67.03
2023-03-01T04:01:17.810Z,70.58
2023-03-01T04:02:17.786Z,70.68
2023-03-01T04:03:17.761Z,68.07
2023-03-01T04:04:17.740Z,70.65
2023-03-01T04:05:17.748Z,71.59
2023-03-01T04:06:17.768Z,67.73
2023-03-01T04:07:17.749Z,68.35
2023-03-01T04:08:17.715Z,68.04
2023-03-01T04:09:17.704Z,67.94
2023-03-01T04:10:18.247Z,65.77
2023-03-01T04:11:17.707Z,65.59
2023-03-01T04:12:17.688Z,65.94
2023-03-01T04:13:17.717Z,67.22
2023-03-01T04:14:17.666Z,70.50
2023-03-01T04:15:17.699Z,67.94
2023-03-01T04:16:17.734Z,68.50
2023-03-01T04:17:17.689Z,73.85
2023-03-01T04:18:17.638Z,71.86
2023-03-01T04:19:17.641Z,70.53
2023-03-01T04:20:17.679Z,70.66
2023-03-01T04:21:17.641Z,71.01
2023-03-01T04:22:17.631Z,70.90
2023-03-01T04:23:18.611Z,72.80
2023-03-01T04:24:17.601Z,72.48
2023-03-01T04:25:17.630Z,71.53
2023-03-01T04:26:17.606Z,71.43
2023-03-01T04:27:17.625Z,73.63
2023-03-01T04:28:17.620Z,71.75
2023-03-01T04:29:17.581Z,74.27
2023-03-01T04:30:17.602Z,74.09
2023-03-01T04:31:17.707Z,75.10
2023-03-01T04:32:17.738Z,72.27
2023-03-01T04:33:17.565Z,72.38
2023-03-01T04:34:17.538Z,74.05
2023-03-01T04:35:17.562Z,75.74
2023-03-01T04:36:17.672Z,72.45
2023-03-01T04:37:17.529Z,71.29
2023-03-01T04:38:17.528Z,73.81
2023-03-01T04:39:17.502Z,71.08
2023-03-01T04:40:17.533Z,73.04
2023-03-01T04:41:17.498Z,75.04
2023-03-01T04:42:17.503Z,75.11
2023-03-01T04:43:17.653Z,74.24
2023-03-01T04:44:17.564Z,70.67
2023-03-01T04:45:17.637Z,70.70
2023-03-01T04:46:17.540Z,72.17
2023-03-01T04:47:17.478Z,72.87
2023-03-01T04:48:17.459Z,70.67
2023-03-01T04:49:17.459Z,73.92
2023-03-01T04:50:17.452Z,73.82
2023-03-01T04:51:17.460Z,71.93
2023-03-01T04:52:17.444Z,69.83
2023-03-01T04:53:17.644Z,71.23
2023-03-01T04:54:17.431Z,72.28
2023-03-01T04:55:17.433Z,71.30
2023-03-01T04:56:17.419Z,70.70
2023-03-01T04:57:17.415Z,71.68
2023-03-01T04:58:18.216Z,76.12
2023-03-01T04:59:17.377Z,74.87
2023-03-01T05:00:17.427Z,70.98
2023-03-01T05:01:18.100Z,70.39
2023-03-01T05:02:17.386Z,70.31
2023-03-01T05:03:17.371Z,70.21
2023-03-01T05:04:17.410Z,72.94
2023-03-01T05:05:17.372Z,70.95
2023-03-01T05:06:17.366Z,70.56
2023-03-01T05:07:17.344Z,72.66
2023-03-01T05:08:17.329Z,74.76
2023-03-01T05:09:17.320Z,72.13
2023-03-01T05:10:17.295Z,73.81
2023-03-01T05:11:17.318Z,73.92
2023-03-01T05:12:17.319Z,72.13
2023-03-01T05:13:17.285Z,71.08
2023-03-01T05:14:17.289Z,72.06
2023-03-01T05:15:17.306Z,76.57
2023-03-01T05:16:17.350Z,75.10
2023-03-01T05:17:17.257Z,72.16
2023-03-01T05:18:17.283Z,71.64
2023-03-01T05:19:17.262Z,72.38
2023-03-01T05:20:17.249Z,72.90
2023-03-01T05:21:17.538Z,73.00
2023-03-01T05:22:17.235Z,71.95
2023-03-01T05:23:17.253Z,71.53
2023-03-01T05:24:17.254Z,71.75
2023-03-01T05:25:17.245Z,72.69
2023-03-01T05:26:27.887Z,72.51
2023-03-01T05:27:19.277Z,72.51
2023-03-01T05:28:17.305Z,73.04
2023-03-01T05:29:17.234Z,72.83
2023-03-01T05:30:17.211Z,74.09
2023-03-01T05:31:17.268Z,73.99
2023-03-01T05:32:17.315Z,73.04
2023-03-01T05:33:17.196Z,71.88
2023-03-01T05:34:17.169Z,73.57
2023-03-01T05:35:17.211Z,73.49
2023-03-01T05:36:17.181Z,72.41
2023-03-01T05:37:17.188Z,73.07
2023-03-01T05:38:17.230Z,75.14
2023-03-01T05:39:17.168Z,74.40
2023-03-01T05:40:17.172Z,73.91
2023-03-01T05:41:17.187Z,73.88
2023-03-01T05:42:17.189Z,73.91
2023-03-01T05:43:17.145Z,73.99
2023-03-01T05:44:17.120Z,73.28
2023-03-01T05:45:17.141Z,74.12
2023-03-01T05:46:17.197Z,73.04
2023-03-01T05:47:17.125Z,74.02
2023-03-01T05:48:17.120Z,74.82
2023-03-01T05:49:17.060Z,73.88
2023-03-01T05:50:18.089Z,73.07
2023-03-01T05:51:17.097Z,72.51
2023-03-01T05:52:17.078Z,72.44
2023-03-01T05:53:17.069Z,72.23
2023-03-01T05:54:17.100Z,72.30
2023-03-01T05:55:17.086Z,72.62
2023-03-01T05:56:17.080Z,74.12
2023-03-01T05:57:17.076Z,74.44
2023-03-01T05:58:17.061Z,74.40
2023-03-01T05:59:17.030Z,74.09
2023-03-01T06:00:17.051Z,72.93
2023-03-01T06:01:17.036Z,73.57
2023-03-01T06:02:17.028Z,72.72
2023-03-01T06:03:16.999Z,73.25
2023-03-01T06:04:17.011Z,73.99
2023-03-01T06:05:17.050Z,73.46
2023-03-01T06:06:17.048Z,72.41
2023-03-01T06:07:17.056Z,73.77
2023-03-01T06:08:16.976Z,72.55
2023-03-01T06:09:16.979Z,73.99
2023-03-01T06:10:16.959Z,73.77
2023-03-01T06:11:17.013Z,72.83
2023-03-01T06:12:16.979Z,75.14
2023-03-01T06:13:16.956Z,74.09
2023-03-01T06:14:16.914Z,73.99
2023-03-01T06:15:19.226Z,73.60
2023-03-01T06:16:17.015Z,72.97
2023-03-01T06:17:16.923Z,74.02
2023-03-01T06:18:16.941Z,73.07
2023-03-01T06:19:16.915Z,73.10
2023-03-01T06:20:17.785Z,73.07
2023-03-01T06:21:16.919Z,74.05
2023-03-01T06:22:16.905Z,74.86
2023-03-01T06:23:16.910Z,73.60
2023-03-01T06:24:17.043Z,73.70
2023-03-01T06:25:16.904Z,73.94
2023-03-01T06:26:16.878Z,73.60
2023-03-01T06:27:16.856Z,76.15
2023-03-01T06:28:16.845Z,75.17
2023-03-01T06:29:16.846Z,74.02
2023-03-01T06:30:16.862Z,74.02
2023-03-01T06:31:16.905Z,74.26
2023-03-01T06:32:16.918Z,75.10
2023-03-01T06:33:16.842Z,74.47
2023-03-01T06:34:16.885Z,74.05
2023-03-01T06:35:16.812Z,74.16
2023-03-01T06:36:16.823Z,73.94
2023-03-01T06:37:16.775Z,73.94
2023-03-01T06:38:16.898Z,73.49
2023-03-01T06:39:16.777Z,73.70
2023-03-01T06:40:17.082Z,75.17
2023-03-01T06:41:16.781Z,74.79
2023-03-01T06:42:16.756Z,74.96
2023-03-01T06:43:17.736Z,73.49
2023-03-01T06:44:16.775Z,74.33
2023-03-01T06:45:16.745Z,75.17
2023-03-01T06:46:16.845Z,75.49
2023-03-01T06:47:16.754Z,74.65
2023-03-01T06:48:16.769Z,74.86
2023-03-01T06:49:16.713Z,75.77
2023-03-01T06:50:16.767Z,74.12
2023-03-01T06:51:16.713Z,73.60
2023-03-01T06:52:17.714Z,74.12
2023-03-01T06:53:16.703Z,73.70
2023-03-01T06:54:16.704Z,73.91
2023-03-01T06:55:16.676Z,73.67
2023-03-01T06:56:17.718Z,73.57
2023-03-01T06:57:16.743Z,73.57
2023-03-01T06:58:16.643Z,73.88
2023-03-01T06:59:16.663Z,74.02
2023-03-01T07:00:16.637Z,73.99
2023-03-01T07:01:16.762Z,74.09
2023-03-01T07:02:16.623Z,73.99
2023-03-01T07:03:16.657Z,74.09
2023-03-01T07:04:16.607Z,73.57
2023-03-01T07:05:16.692Z,74.19
2023-03-01T07:06:16.616Z,72.83
2023-03-01T07:07:16.604Z,72.93
2023-03-01T07:08:16.600Z,73.14
2023-03-01T07:09:16.626Z,72.20
2023-03-01T07:10:16.614Z,72.93
2023-03-01T07:11:16.586Z,73.04
2023-03-01T07:12:16.572Z,73.85
2023-03-01T07:13:16.533Z,72.90
2023-03-01T07:14:16.538Z,71.75
2023-03-01T07:15:16.548Z,72.58
2023-03-01T07:16:16.581Z,72.90
2023-03-01T07:17:16.544Z,73.63
2023-03-01T07:18:16.502Z,73.43
2023-03-01T07:19:16.505Z,72.58
2023-03-01T07:20:16.505Z,73.63
2023-03-01T07:21:16.502Z,73.63
2023-03-01T07:22:16.529Z,73.53
2023-03-01T07:23:16.492Z,73.53
2023-03-01T07:24:16.495Z,73.22
2023-03-01T07:25:16.554Z,73.11
2023-03-01T07:26:16.476Z,72.34
2023-03-01T07:27:16.459Z,73.43
2023-03-01T07:28:21.488Z,73.53
2023-03-01T07:29:16.457Z,72.86
2023-03-01T07:30:16.465Z,71.71
2023-03-01T07:31:16.454Z,72.03
2023-03-01T07:32:16.499Z,72.03
2023-03-01T07:33:16.514Z,71.81
2023-03-01T07:34:16.416Z,71.29
2023-03-01T07:35:16.409Z,72.55
2023-03-01T07:36:16.414Z,71.08
2023-03-01T07:37:16.378Z,72.20
2023-03-01T07:38:16.413Z,71.26
2023-03-01T07:39:18.058Z,71.15
2023-03-01T07:40:16.373Z,71.47
2023-03-01T07:41:16.361Z,70.84
2023-03-01T07:42:16.361Z,71.12
2023-03-01T07:43:16.356Z,71.12
2023-03-01T07:44:16.376Z,70.95
2023-03-01T07:45:16.349Z,71.15
2023-03-01T07:46:16.375Z,70.60
2023-03-01T07:47:16.322Z,71.05
2023-03-01T07:48:16.309Z,70.81
2023-03-01T07:49:16.333Z,70.91
2023-03-01T07:50:17.161Z,70.63
2023-03-01T07:51:16.297Z,70.39
2023-03-01T07:52:16.272Z,70.60
2023-03-01T07:53:16.282Z,70.39
2023-03-01T07:54:17.284Z,70.50
2023-03-01T07:55:16.276Z,70.07
2023-03-01T07:56:16.292Z,70.28
2023-03-01T07:57:16.277Z,71.30
2023-03-01T07:58:16.326Z,70.88
2023-03-01T07:59:16.249Z,70.36
2023-03-01T08:00:16.239Z,70.46
2023-03-01T08:01:16.290Z,69.93
2023-03-01T08:02:16.229Z,70.15
2023-03-01T08:03:17.081Z,69.73
2023-03-01T08:04:16.198Z,69.73
2023-03-01T08:05:16.220Z,70.04
2023-03-01T08:06:16.216Z,69.93
2023-03-01T08:07:16.199Z,69.73
2023-03-01T08:08:17.492Z,70.70
2023-03-01T08:09:16.188Z,70.78
